Time;durP1;ratioP1;P1;durP2;ratioP2;P2;SDS_P1;SDS_P2;PMS_P1;PMS_P2;Temp;Humidity;BMP_temperature;BMP_pressure;BME280_temperature;BME280_humidity;BME280_pressure;Samples;Min_cycle;Max_cycle;Signal;HPM_P1;HPM_P2
2023/03/23 09:41:33;;;;;;;;;3.00;3.00;;;;;15.70;66.33;100432.84;5069473;28;45276;-44
2023/03/23 09:44:10;;;;;;;;;3.00;1.00;;;;;15.91;65.62;100442.78;5052417;28;45462;-45
2023/03/23 09:47:04;;;;;;;;;5.50;2.00;;;;;16.57;64.74;100442.63;5052581;28;45472;-46
2023/03/23 09:49:37;;;;;;;;;6.25;2.25;;;;;16.76;63.69;100458.09;5052802;28;45466;-42
2023/03/23 09:52:17;;;;;;;;;2.25;2.00;;;;;16.91;63.09;100452.66;5052128;28;45444;-46
2023/03/23 09:54:47;;;;;;;;;2.00;2.00;;;;;16.86;65.69;100449.72;5052351;28;45444;-46
2023/03/23 09:57:20;;;;;;;;;2.00;2.00;;;;;16.73;63.22;100446.91;5052388;28;45307;-44
2023/03/23 09:59:46;;;;;;;;;2.00;2.00;;;;;16.61;64.40;100460.03;5052321;28;45443;-43
2023/03/23 10:02:32;;;;;;;;;3.50;3.00;;;;;16.77;65.31;100449.03;5052247;28;45748;-44
2023/03/23 10:05:29;;;;;;;;;2.25;2.25;;;;;17.06;61.44;100428.34;5050790;28;45382;-45
2023/03/23 10:07:55;;;;;;;;;1.75;1.50;;;;;18.03;59.05;100438.97;5052188;28;45357;-45
2023/03/23 10:10:29;;;;;;;;;2.75;2.75;;;;;19.28;58.80;100421.22;5052434;28;45353;-43
2023/03/23 10:13:10;;;;;;;;;9.00;2.50;;;;;21.26;54.10;100445.31;5051725;28;46072;-45
2023/03/23 10:15:39;;;;;;;;;3.00;1.75;;;;;22.77;49.92;100413.72;5051860;28;45452;-43
2023/03/23 10:18:15;;;;;;;;;5.00;3.00;;;;;23.48;48.36;100422.66;5052022;28;45279;-44
2023/03/23 10:20:56;;;;;;;;;2.00;2.00;;;;;24.06;45.87;100418.94;5052481;28;45441;-46
2023/03/23 10:23:45;;;;;;;;;3.00;1.60;;;;;23.53;43.67;100430.09;5052104;28;47103;-46
2023/03/23 10:26:25;;;;;;;;;3.00;1.00;;;;;25.10;46.46;100425.84;5052381;28;45411;-44
2023/03/23 10:28:55;;;;;;;;;4.60;2.60;;;;;24.79;41.72;100435.44;5051866;28;45354;-44
2023/03/23 10:31:35;;;;;;;;;3.80;2.80;;;;;23.33;46.55;100436.72;5052004;28;45165;-45
2023/03/23 10:34:10;;;;;;;;;2.20;2.20;;;;;22.47;45.05;100432.78;5051575;28;46650;-45
2023/03/23 10:36:51;;;;;;;;;2.40;1.20;;;;;22.16;47.13;100399.47;5051598;28;45454;-45
2023/03/23 10:39:22;;;;;;;;;4.60;3.00;;;;;22.19;45.08;100400.06;5057088;28;45427;-44
2023/03/23 10:41:48;;;;;;;;;2.80;1.00;;;;;21.97;48.78;100424.09;5072144;28;45418;-47
2023/03/23 10:44:16;;;;;;;;;5.50;3.00;;;;;21.47;47.32;100441.38;5071686;28;46992;-43
2023/03/23 10:46:50;;;;;;;;;3.00;3.00;;;;;21.05;47.28;100443.88;5072190;28;45252;-50
2023/03/23 10:49:25;;;;;;;;;5.00;3.00;;;;;20.60;47.86;100425.13;5072119;28;45620;-44
2023/03/23 10:52:04;;;;;;;;;1.40;1.00;;;;;20.47;48.56;100416.28;5061699;28;45441;-43
2023/03/23 10:54:38;;;;;;;;;3.20;2.20;;;;;20.66;48.59;100418.84;5057983;28;47597;-46
2023/03/23 10:57:20;;;;;;;;;4.00;2.00;;;;;21.33;47.82;100432.59;5057646;28;45457;-47
2023/03/23 10:59:45;;;;;;;;;2.00;2.00;;;;;21.34;47.80;100425.31;5058195;28;45204;-45
2023/03/23 11:02:16;;;;;;;;;5.25;2.00;;;;;21.14;48.25;100437.13;5058414;28;45419;-43
2023/03/23 11:04:46;;;;;;;;;4.00;3.20;;;;;20.66;47.97;100396.41;5057770;28;45880;-41
2023/03/23 11:07:21;;;;;;;;;3.00;3.00;;;;;21.23;47.55;100405.19;5039904;28;45368;-43
2023/03/23 11:09:55;;;;;;;;;2.00;2.00;;;;;21.58;46.73;100410.88;5058289;28;45308;-45
2023/03/23 11:12:22;;;;;;;;;5.00;3.40;;;;;21.65;45.85;100417.00;5058357;28;45231;-44
2023/03/23 11:14:49;;;;;;;;;4.20;2.40;;;;;22.39;45.42;100423.09;5057693;28;46103;-46
2023/03/23 11:17:26;;;;;;;;;3.20;2.40;;;;;22.66;44.82;100419.94;5057872;28;45683;-44
2023/03/23 11:19:54;;;;;;;;;3.00;3.00;;;;;22.64;43.98;100432.91;5057795;28;45268;-47
2023/03/23 11:22:23;;;;;;;;;4.00;4.00;;;;;22.44;44.51;100425.09;5057981;28;45442;-44
2023/03/23 11:24:54;;;;;;;;;4.60;2.40;;;;;21.86;45.40;100420.28;5057534;28;46484;-42
2023/03/23 11:27:21;;;;;;;;;3.20;2.60;;;;;21.59;45.27;100401.69;5057895;28;45344;-43
2023/03/23 11:29:56;;;;;;;;;5.20;3.00;;;;;21.37;45.92;100412.16;5057141;28;45372;-46
2023/03/23 11:32:29;;;;;;;;;3.75;3.00;;;;;20.99;47.09;100427.72;5058079;28;45416;-47
2023/03/23 11:35:04;;;;;;;;;2.20;1.80;;;;;20.81;46.71;100425.78;5057276;28;45418;-45
2023/03/23 11:37:33;;;;;;;;;3.00;1.80;;;;;20.51;47.64;100423.75;5057516;28;45375;-45
2023/03/23 11:39:59;;;;;;;;;1.60;1.60;;;;;20.22;49.19;100416.22;5057355;28;45375;-45
2023/03/23 11:42:35;;;;;;;;;2.60;2.00;;;;;20.08;48.71;100421.72;5057823;28;45323;-46
2023/03/23 11:45:22;;;;;;;;;5.60;3.00;;;;;20.06;48.46;100417.59;5056958;28;47440;-46
2023/03/23 11:48:11;;;;;;;;;2.80;2.60;;;;;19.71;48.93;100409.03;5057263;28;45441;-46
2023/03/23 11:50:54;;;;;;;;;4.00;3.40;;;;;19.86;48.87;100410.44;5057550;28;45435;-48
2023/03/23 11:53:19;;;;;;;;;4.25;2.00;;;;;19.76;49.00;100401.94;5057459;28;45360;-44
2023/03/23 11:55:45;;;;;;;;;4.50;3.00;;;;;20.02;49.46;100414.50;5057436;28;47071;-46
2023/03/23 11:58:16;;;;;;;;;2.00;2.00;;;;;19.96;48.46;100411.81;5057335;28;45370;-47
2023/03/23 12:00:51;;;;;;;;;5.00;3.00;;;;;19.54;49.28;100397.88;5056758;28;45578;-45
2023/03/23 12:03:42;;;;;;;;;3.25;1.50;;;;;19.32;50.07;100416.22;5056246;28;45347;-45
2023/03/23 12:06:12;;;;;;;;;5.00;3.50;;;;;19.02;51.49;100405.91;5056760;28;45399;-46
2023/03/23 12:08:58;;;;;;;;;5.80;3.00;;;;;18.69;51.24;100428.34;5056758;28;45689;-43
2023/03/23 12:11:49;;;;;;;;;3.00;1.75;;;;;18.48;51.63;100416.91;5057238;28;45451;-45
2023/03/23 12:14:26;;;;;;;;;2.75;2.00;;;;;18.39;52.56;100421.66;5056927;28;45592;-44
2023/03/23 12:17:22;;;;;;;;;5.25;2.00;;;;;18.29;52.48;100410.47;5056306;28;46259;-44
2023/03/23 12:20:07;;;;;;;;;5.00;3.20;;;;;18.22;52.37;100415.03;5056927;28;45345;-46
2023/03/23 12:22:48;;;;;;;;;5.25;2.00;;;;;18.30;52.59;100412.97;5056758;28;45475;-45
2023/03/23 12:25:29;;;;;;;;;9.00;5.25;;;;;18.61;52.55;100423.13;5056828;28;45375;-46
2023/03/23 12:28:35;;;;;;;;;10.25;4.25;;;;;19.00;52.53;100418.75;5056387;28;46077;-44
2023/03/23 12:31:22;;;;;;;;;5.75;3.00;;;;;19.06;51.31;100412.56;5055596;28;45425;-44
2023/03/23 12:34:07;;;;;;;;;4.25;3.75;;;;;20.28;50.12;100416.19;5056838;28;45926;-46
2023/03/23 12:36:51;;;;;;;;;1.50;1.25;;;;;19.98;49.22;100405.19;5056694;28;45429;-46
2023/03/23 12:39:43;;;;;;;;;3.00;2.00;;;;;19.85;51.01;100410.66;5055917;28;46358;-44
2023/03/23 12:42:36;;;;;;;;;3.80;3.40;;;;;20.25;50.25;100405.00;5056596;28;45500;-45
2023/03/23 12:45:04;;;;;;;;;5.20;3.00;;;;;20.39;48.21;100388.50;5056335;28;45519;-44
2023/03/23 12:47:45;;;;;;;;;2.00;2.00;;;;;20.21;49.56;100374.06;5056619;28;45618;-46
2023/03/23 12:50:17;;;;;;;;;6.00;4.80;;;;;19.98;48.73;100380.06;5056247;28;46399;-45
2023/03/23 12:53:04;;;;;;;;;4.60;2.60;;;;;19.84;49.04;100374.72;5056515;28;45385;-43
2023/03/23 12:56:05;;;;;;;;;3.20;1.60;;;;;19.87;49.86;100378.84;5056453;28;45353;-45
2023/03/23 12:58:34;;;;;;;;;4.75;4.25;;;;;19.85;49.75;100389.88;5054797;28;45430;-44
2023/03/23 13:01:06;;;;;;;;;4.00;2.00;;;;;19.70;50.01;100386.63;5055304;28;46189;-44
2023/03/23 13:03:47;;;;;;;;;10.60;4.00;;;;;19.55;49.16;100377.94;5056004;28;45397;-46
2023/03/23 13:06:18;;;;;;;;;3.20;3.20;;;;;19.39;49.04;100366.63;5055877;28;45455;-46
2023/03/23 13:08:53;;;;;;;;;3.00;3.00;;;;;19.28;50.10;100364.56;5055977;28;45303;-46
2023/03/23 13:11:32;;;;;;;;;3.50;2.00;;;;;19.10;50.87;100359.88;5055624;28;46559;-44
2023/03/23 13:14:08;;;;;;;;;5.20;1.80;;;;;19.04;51.16;100360.69;5055472;28;45430;-46
2023/03/23 13:16:58;;;;;;;;;2.80;2.00;;;;;19.16;50.36;100352.78;5055364;28;45394;-45
2023/03/23 13:19:41;;;;;;;;;2.00;2.00;;;;;19.06;50.45;100347.03;5055846;28;45399;-45
2023/03/23 13:22:13;;;;;;;;;5.50;2.00;;;;;18.94;50.55;100338.75;5055391;28;45347;-47
2023/03/23 13:24:45;;;;;;;;;2.80;2.20;;;;;18.93;50.79;100346.00;5055575;28;45332;-44
2023/03/23 13:27:13;;;;;;;;;7.75;2.75;;;;;18.94;50.70;100338.75;5055830;28;45362;-46
2023/03/23 13:29:45;;;;;;;;;3.00;3.00;;;;;18.99;51.50;100336.25;5055629;28;45263;-44
2023/03/23 13:32:17;;;;;;;;;4.25;3.00;;;;;18.98;50.13;100312.22;5053942;28;45493;-45
2023/03/23 13:34:44;;;;;;;;;4.20;2.00;;;;;19.04;50.65;100296.00;5055451;28;45458;-45
2023/03/23 13:37:20;;;;;;;;;3.50;2.00;;;;;19.10;50.67;100307.81;5055500;28;45365;-43
2023/03/23 13:39:48;;;;;;;;;5.25;2.25;;;;;18.88;49.64;100302.69;5055353;28;45446;-45
2023/03/23 13:42:14;;;;;;;;;4.50;2.50;;;;;18.86;49.89;100298.56;5055441;28;46400;-46
2023/03/23 13:44:48;;;;;;;;;3.25;3.25;;;;;18.77;50.35;100291.75;5054615;28;45457;-44
2023/03/23 13:47:30;;;;;;;;;4.00;2.00;;;;;18.75;50.23;100289.28;5051169;28;45508;-43
2023/03/23 13:49:57;;;;;;;;;3.75;3.75;;;;;18.74;49.97;100281.38;5052273;28;45459;-43
2023/03/23 13:52:45;;;;;;;;;9.75;2.75;;;;;18.64;49.87;100279.09;5052045;28;46385;-44
2023/03/23 13:55:16;;;;;;;;;9.25;5.00;;;;;18.30;49.91;100239.81;5052110;28;45652;-42
2023/03/23 13:57:50;;;;;;;;;4.25;2.25;;;;;18.55;50.33;100277.69;5050712;28;45470;-45
2023/03/23 14:00:31;;;;;;;;;6.00;2.75;;;;;18.52;49.52;100264.63;5051978;28;45430;-44
2023/03/23 14:03:09;;;;;;;;;5.75;2.75;;;;;18.51;50.24;100279.97;5051258;28;46145;-43
2023/03/23 14:05:38;;;;;;;;;5.00;4.00;;;;;18.48;50.36;100279.53;5052229;28;45478;-44
2023/03/23 14:08:09;;;;;;;;;2.00;2.00;;;;;18.35;49.96;100272.31;5051924;28;45455;-42
2023/03/23 14:10:42;;;;;;;;;2.50;1.25;;;;;18.25;50.95;100271.91;5052349;28;45422;-44
2023/03/23 14:13:32;;;;;;;;;3.50;3.00;;;;;18.26;51.05;100270.88;5051268;28;46331;-45
2023/03/23 14:16:13;;;;;;;;;2.00;2.00;;;;;18.15;51.14;100275.84;5051652;28;45737;-44
2023/03/23 14:18:41;;;;;;;;;2.00;2.00;;;;;18.08;51.05;100248.13;5051666;28;45391;-43
2023/03/23 14:21:15;;;;;;;;;4.00;3.00;;;;;17.97;51.23;100255.97;5052059;28;45491;-44
2023/03/23 14:23:40;;;;;;;;;3.50;3.50;;;;;17.90;51.66;100248.72;5051716;28;47560;-45
2023/03/23 14:26:14;;;;;;;;;1.75;1.75;;;;;17.94;51.44;100243.75;5053014;28;45967;-46
2023/03/23 14:28:43;;;;;;;;;4.50;2.25;;;;;17.84;51.60;100246.84;5055625;28;45592;-46
2023/03/23 14:31:25;;;;;;;;;7.75;2.50;;;;;17.85;52.04;100250.38;5055253;28;45501;-45
2023/03/23 14:33:53;;;;;;;;;6.75;3.50;;;;;17.96;52.04;100233.63;5054739;28;46250;-45
2023/03/23 14:36:27;;;;;;;;;5.00;2.25;;;;;18.00;51.88;100253.69;5055363;28;45723;-44
2023/03/23 14:39:11;;;;;;;;;2.50;2.50;;;;;17.89;52.07;100246.25;5069872;28;45511;-46
2023/03/23 14:41:37;;;;;;;;;5.00;2.00;;;;;17.80;52.41;100239.41;5054841;28;45561;-45
2023/03/23 14:44:06;;;;;;;;;4.00;2.50;;;;;17.75;52.67;100275.00;5054913;28;46281;-43
2023/03/23 14:46:32;;;;;;;;;5.00;2.00;;;;;17.64;52.04;100244.09;5055134;28;45573;-44
2023/03/23 14:49:02;;;;;;;;;3.50;3.50;;;;;17.63;52.19;100237.09;5054510;28;45332;-43
2023/03/23 14:51:27;;;;;;;;;1.00;1.00;;;;;17.68;51.96;100237.28;5054895;28;45458;-45
2023/03/23 14:53:54;;;;;;;;;2.75;2.75;;;;;17.68;52.32;100234.59;5054686;28;45970;-43
2023/03/23 14:56:23;;;;;;;;;4.75;1.25;;;;;17.71;52.14;100228.81;5054880;28;45371;-44
2023/03/23 14:58:52;;;;;;;;;5.00;3.75;;;;;17.70;52.29;100247.88;5054569;28;45496;-45
2023/03/23 15:01:29;;;;;;;;;8.75;3.00;;;;;17.71;51.99;100238.75;5055079;28;45509;-43
2023/03/23 15:04:05;;;;;;;;;4.25;2.00;;;;;17.77;52.04;100250.56;5051496;28;47174;-43
2023/03/23 15:06:35;;;;;;;;;5.25;3.00;;;;;17.59;52.03;100219.69;5054881;28;45498;-44
2023/03/23 15:09:06;;;;;;;;;2.50;2.50;;;;;17.72;51.67;100240.41;5054811;28;45661;-44
2023/03/23 15:11:34;;;;;;;;;7.25;3.00;;;;;17.75;51.85;100239.19;5055052;28;45495;-44
2023/03/23 15:14:08;;;;;;;;;2.75;2.75;;;;;17.73;51.92;100241.22;5054084;28;46181;-45
2023/03/23 15:16:34;;;;;;;;;4.50;2.50;;;;;17.66;51.66;100234.00;5054085;28;45502;-44
2023/03/23 15:19:15;;;;;;;;;4.00;2.00;;;;;17.64;52.16;100236.03;5054409;28;45419;-45
2023/03/23 15:21:55;;;;;;;;;2.50;2.50;;;;;17.63;51.57;100255.09;5054841;28;45432;-44
2023/03/23 15:24:31;;;;;;;;;4.75;3.00;;;;;17.56;51.42;100246.16;5052908;28;45800;-43
2023/03/23 15:27:05;;;;;;;;;2.75;2.00;;;;;17.51;51.42;100241.41;5052646;28;45494;-44
2023/03/23 15:29:31;;;;;;;;;1.00;1.00;;;;;17.39;51.01;100222.34;5054698;28;45528;-45
2023/03/23 15:31:56;;;;;;;;;2.75;1.75;;;;;17.17;51.24;100200.19;5054106;28;45666;-44
2023/03/23 15:34:25;;;;;;;;;1.50;1.50;;;;;17.38;50.92;100236.00;5053079;28;47187;-46
2023/03/23 15:36:55;;;;;;;;;5.50;2.50;;;;;17.29;50.87;100223.78;5053403;28;45507;-43
2023/03/23 15:39:21;;;;;;;;;3.25;2.00;;;;;17.32;50.85;100220.66;5053767;28;45427;-44
2023/03/23 15:41:48;;;;;;;;;2.00;1.25;;;;;17.33;51.09;100235.78;5053771;28;45602;-44
2023/03/23 15:44:25;;;;;;;;;3.00;1.00;;;;;17.31;50.88;100229.78;5052787;28;46310;-45
2023/03/23 15:46:53;;;;;;;;;5.00;2.00;;;;;17.32;51.51;100240.34;5054725;28;45537;-46
2023/03/23 15:49:18;;;;;;;;;8.00;1.75;;;;;17.28;51.90;100203.31;5057399;28;45287;-44
2023/03/23 15:51:44;;;;;;;;;2.50;1.25;;;;;17.27;51.77;100217.78;5039666;28;45561;-44
2023/03/23 15:54:13;;;;;;;;;4.25;2.25;;;;;17.25;52.11;100217.97;5056894;28;46982;-45
2023/03/23 15:56:39;;;;;;;;;3.75;2.00;;;;;17.20;52.07;100217.78;5057170;28;45414;-44
2023/03/23 15:59:05;;;;;;;;;2.25;2.00;;;;;17.18;51.97;100211.75;5056381;28;45463;-47
2023/03/23 16:01:30;;;;;;;;;1.75;1.00;;;;;17.10;52.67;100202.00;5057005;28;45397;-45
2023/03/23 16:04:04;;;;;;;;;1.75;1.75;;;;;17.11;52.35;100213.63;5056932;28;47328;-42
2023/03/23 16:06:31;;;;;;;;;0.75;0.50;;;;;17.08;52.76;100205.94;5056893;28;45439;-44
2023/03/23 16:08:58;;;;;;;;;3.75;1.00;;;;;17.06;52.65;100206.13;5056774;28;45403;-43
2023/03/23 16:11:27;;;;;;;;;2.75;1.00;;;;;17.01;52.86;100203.22;5057423;28;45390;-44
2023/03/23 16:13:53;;;;;;;;;2.00;2.00;;;;;17.03;53.12;100214.63;5056658;28;45445;-47
2023/03/23 16:16:31;;;;;;;;;3.00;1.00;;;;;16.92;52.96;100194.53;5056720;28;45576;-46
2023/03/23 16:18:56;;;;;;;;;7.00;1.75;;;;;16.95;53.29;100185.25;5056923;28;45372;-45
2023/03/23 16:21:21;;;;;;;;;2.25;1.25;;;;;16.93;53.45;100193.47;5056990;28;45410;-44
2023/03/23 16:23:47;;;;;;;;;2.50;1.50;;;;;16.89;52.99;100194.09;5057047;28;45430;-43
2023/03/23 16:26:14;;;;;;;;;2.00;1.00;;;;;16.87;52.75;100186.25;5056813;28;45348;-45
2023/03/23 16:28:40;;;;;;;;;1.50;1.00;;;;;16.80;52.58;100171.13;5056488;28;45496;-45
2023/03/23 16:31:06;;;;;;;;;2.00;2.00;;;;;16.83;52.87;100184.16;5056924;28;45391;-43
2023/03/23 16:33:31;;;;;;;;;2.75;1.25;;;;;16.82;52.41;100187.88;5056441;28;45927;-44
2023/03/23 16:35:57;;;;;;;;;3.00;1.50;;;;;16.77;52.76;100193.88;5055786;28;45433;-44
2023/03/23 16:38:23;;;;;;;;;3.75;2.00;;;;;16.76;52.37;100189.50;5056760;28;45335;-43
2023/03/23 16:40:48;;;;;;;;;3.00;1.00;;;;;16.72;52.70;100172.09;5056408;28;45439;-42
2023/03/23 16:43:14;;;;;;;;;2.00;2.00;;;;;16.72;52.38;100172.09;5056587;28;45356;-43
2023/03/23 16:45:41;;;;;;;;;2.75;2.00;;;;;16.71;52.48;100165.06;5056484;28;45467;-45
2023/03/23 16:48:08;;;;;;;;;3.50;2.00;;;;;16.69;52.39;100164.47;5055999;28;45374;-45
2023/03/23 16:50:35;;;;;;;;;2.00;2.00;;;;;16.69;52.34;100167.16;5056240;28;45510;-43
2023/03/23 16:53:00;;;;;;;;;2.75;1.75;;;;;16.69;52.86;100161.78;5055968;28;47215;-44
2023/03/23 16:55:26;;;;;;;;;4.75;1.00;;;;;16.67;52.62;100163.81;5056443;28;45359;-46
2023/03/23 16:57:53;;;;;;;;;3.25;2.75;;;;;16.66;53.11;100165.69;5056299;28;45419;-42
2023/03/23 17:00:19;;;;;;;;;4.00;1.25;;;;;16.62;53.14;100172.47;5056333;28;45455;-42
2023/03/23 17:02:46;;;;;;;;;4.75;2.00;;;;;16.57;53.40;100156.13;5056006;28;45469;-45
2023/03/23 17:05:12;;;;;;;;;3.00;3.00;;;;;16.57;53.52;100158.81;5055996;28;45462;-44
2023/03/23 17:07:39;;;;;;;;;3.00;1.00;;;;;16.58;53.46;100157.78;5054121;28;45506;-43
2023/03/23 17:10:06;;;;;;;;;3.75;1.00;;;;;16.57;53.58;100152.63;5056318;28;45572;-45
2023/03/23 17:12:32;;;;;;;;;1.25;1.25;;;;;16.57;53.95;100156.13;5056089;28;45446;-44
2023/03/23 17:14:58;;;;;;;;;3.00;3.00;;;;;16.55;54.14;100160.03;5056011;28;45494;-45
2023/03/23 17:17:23;;;;;;;;;4.00;1.00;;;;;16.55;53.64;100157.34;5055826;28;45393;-45
2023/03/23 17:19:49;;;;;;;;;3.00;2.50;;;;;16.54;54.20;100155.72;5056069;28;45344;-45
2023/03/23 17:22:14;;;;;;;;;2.25;2.00;;;;;16.53;54.48;100151.38;5055956;28;46218;-44
2023/03/23 17:24:40;;;;;;;;;2.50;2.25;;;;;16.49;54.37;100160.84;5055817;28;45398;-46
2023/03/23 17:27:05;;;;;;;;;2.50;2.00;;;;;16.48;54.38;100153.84;5055773;28;45346;-43
2023/03/23 17:29:31;;;;;;;;;3.00;1.75;;;;;16.44;54.69;100148.84;5037840;28;45496;-43
2023/03/23 17:31:57;;;;;;;;;3.00;2.00;;;;;16.43;54.73;100151.72;5055687;28;45718;-44
2023/03/23 17:34:22;;;;;;;;;2.00;1.00;;;;;16.41;55.09;100138.50;5056384;28;45454;-45
2023/03/23 17:36:47;;;;;;;;;4.00;1.00;;;;;16.40;55.03;100130.66;5056855;28;45399;-44
2023/03/23 17:39:13;;;;;;;;;2.75;1.00;;;;;16.38;55.02;100159.53;5056522;28;45305;-42
2023/03/23 17:41:39;;;;;;;;;1.00;1.00;;;;;16.36;55.09;100150.88;5056068;28;46481;-45
2023/03/23 17:44:04;;;;;;;;;1.25;1.25;;;;;16.33;55.35;100152.09;5055750;28;45349;-44
2023/03/23 17:46:29;;;;;;;;;1.25;1.25;;;;;16.33;55.33;100145.91;5056212;28;45606;-43
2023/03/23 17:48:55;;;;;;;;;1.50;1.00;;;;;16.29;55.36;100136.59;5055853;28;45299;-45
2023/03/23 17:51:20;;;;;;;;;2.00;2.00;;;;;16.27;55.37;100152.91;5055443;28;46014;-45
2023/03/23 17:53:46;;;;;;;;;2.00;2.00;;;;;16.25;55.35;100143.38;5055417;28;45314;-44
2023/03/23 17:56:11;;;;;;;;;2.00;2.00;;;;;16.25;55.74;100148.75;5055821;28;45395;-44
2023/03/23 17:58:36;;;;;;;;;4.25;2.00;;;;;16.26;55.86;100150.41;5056322;28;45214;-43
2023/03/23 18:01:02;;;;;;;;;3.00;2.00;;;;;16.23;55.61;100140.91;5056293;28;45991;-45
2023/03/23 18:03:28;;;;;;;;;1.75;1.75;;;;;16.25;55.83;100144.19;5059269;28;45465;-42
2023/03/23 18:06:02;;;;;;;;;3.00;1.00;;;;;16.23;55.79;100146.28;5059478;28;45408;-44
2023/03/23 18:08:28;;;;;;;;;2.25;2.25;;;;;16.23;56.34;100154.31;5059593;28;45406;-42
2023/03/23 18:10:55;;;;;;;;;1.50;1.50;;;;;16.23;56.74;100156.19;5059233;28;46089;-45
2023/03/23 18:13:22;;;;;;;;;3.25;3.00;;;;;16.18;56.45;100146.00;5059165;28;45436;-43
2023/03/23 18:15:48;;;;;;;;;5.50;3.00;;;;;16.18;56.63;100154.91;5059364;28;45284;-46
2023/03/23 18:18:13;;;;;;;;;4.50;3.00;;;;;16.16;56.83;100148.09;5059611;28;45344;-44
2023/03/23 18:20:39;;;;;;;;;2.00;2.00;;;;;16.16;56.79;100145.41;5041000;28;46148;-42
2023/03/23 18:23:05;;;;;;;;;5.00;2.25;;;;;16.13;57.42;100141.25;5059322;28;45326;-43
2023/03/23 18:25:31;;;;;;;;;2.25;2.00;;;;;16.11;57.75;100140.63;5059103;28;45245;-46
2023/03/23 18:27:56;;;;;;;;;1.50;1.50;;;;;16.04;57.97;100142.44;5059417;28;45379;-46
2023/03/23 18:30:22;;;;;;;;;2.75;2.75;;;;;16.07;58.05;100139.38;5058664;28;47076;-43
2023/03/23 18:32:47;;;;;;;;;3.50;2.00;;;;;16.07;58.18;100133.16;5058361;28;45417;-44
2023/03/23 18:35:13;;;;;;;;;4.50;3.00;;;;;16.06;57.89;100129.66;5059048;28;45316;-43
2023/03/23 18:37:38;;;;;;;;;4.00;2.50;;;;;16.02;58.25;100130.25;5058093;28;45564;-45
2023/03/23 18:40:05;;;;;;;;;1.50;1.50;;;;;16.01;58.08;100126.72;5058298;28;47055;-45
2023/03/23 18:42:31;;;;;;;;;4.00;2.00;;;;;15.95;58.58;100119.47;5040272;28;45567;-46
2023/03/23 18:44:58;;;;;;;;;4.50;3.00;;;;;15.95;58.26;100124.84;5074176;27;45419;-43
2023/03/23 18:47:24;;;;;;;;;3.75;1.25;;;;;15.94;58.27;100115.13;5058330;28;45533;-46
2023/03/23 18:49:53;;;;;;;;;5.25;2.00;;;;;15.85;58.44;100105.59;5058095;28;45337;-44
2023/03/23 18:52:19;;;;;;;;;3.00;3.00;;;;;15.92;58.69;100117.19;5058201;28;45401;-44
2023/03/23 18:54:45;;;;;;;;;5.25;2.00;;;;;15.92;58.63;100131.41;5058567;28;45404;-44
2023/03/23 18:57:11;;;;;;;;;4.00;2.25;;;;;15.88;58.79;100127.47;5058673;28;45508;-46
2023/03/23 18:59:36;;;;;;;;;4.00;2.00;;;;;15.89;59.10;100106.88;5057988;28;47285;-47
2023/03/23 19:02:02;;;;;;;;;7.00;3.00;;;;;15.90;59.13;100119.25;5058146;28;45470;-44
2023/03/23 19:04:30;;;;;;;;;8.00;8.00;;;;;15.86;59.08;100113.44;5057974;28;45439;-45
2023/03/23 19:07:03;;;;;;;;;5.50;3.00;;;;;15.86;58.77;100108.06;5058379;28;45491;-46
2023/03/23 19:09:29;;;;;;;;;3.75;2.00;;;;;15.80;58.96;100108.88;5057969;28;46392;-48
2023/03/23 19:11:55;;;;;;;;;6.00;2.75;;;;;15.85;59.64;100110.97;5057312;28;45268;-46
2023/03/23 19:14:21;;;;;;;;;5.25;2.00;;;;;15.80;59.95;100113.38;5058141;28;45320;-46
2023/03/23 19:16:46;;;;;;;;;3.25;1.50;;;;;15.75;60.00;100115.81;5058275;28;45312;-45
2023/03/23 19:19:11;;;;;;;;;4.75;2.25;;;;;15.74;59.49;100133.78;5057662;28;45372;-43
2023/03/23 19:21:38;;;;;;;;;6.00;5.67;;;;;15.74;60.83;100111.50;5057847;28;45462;-43
2023/03/23 19:24:05;;;;;;;;;2.50;2.00;;;;;15.69;60.89;100114.75;5058123;28;45247;-47
2023/03/23 19:26:35;;;;;;;;;3.00;3.00;;;;;15.65;61.05;100111.63;5057923;28;45461;-48
2023/03/23 19:29:01;;;;;;;;;2.25;2.25;;;;;15.62;61.50;100120.03;5057703;28;46293;-46
2023/03/23 19:31:28;;;;;;;;;3.00;2.33;;;;;15.60;61.40;100108.69;5057553;28;45248;-47
2023/03/23 19:33:53;;;;;;;;;6.00;3.67;;;;;15.57;61.61;100105.56;5057950;28;45320;-45
2023/03/23 19:36:21;;;;;;;;;6.33;3.00;;;;;15.56;62.40;100109.28;5057943;28;45367;-46
2023/03/23 19:38:46;;;;;;;;;4.75;3.75;;;;;15.53;62.83;100123.88;5057473;28;45572;-48
2023/03/23 19:41:12;;;;;;;;;1.25;1.25;;;;;15.50;62.73;100108.19;5057691;28;45328;-45
2023/03/23 19:43:37;;;;;;;;;2.00;2.00;;;;;15.44;63.16;100106.28;5057778;28;45597;-46
2023/03/23 19:46:03;;;;;;;;;5.33;3.00;;;;;15.42;63.45;100113.69;5057981;28;45316;-43
2023/03/23 19:48:29;;;;;;;;;4.33;2.00;;;;;15.29;63.96;100084.09;5057195;28;46858;-43
2023/03/23 19:50:56;;;;;;;;;3.33;3.00;;;;;15.22;63.84;100078.69;5057642;28;45280;-45
2023/03/23 19:53:22;;;;;;;;;5.00;4.67;;;;;15.29;65.09;100092.97;5057442;28;45319;-45
2023/03/23 19:55:47;;;;;;;;;2.33;2.33;;;;;15.25;64.65;100082.81;5057736;28;45445;-41
2023/03/23 19:58:13;;;;;;;;;5.33;2.00;;;;;15.22;65.58;100081.38;5057280;28;47106;-46
2023/03/23 20:00:39;;;;;;;;;6.00;3.00;;;;;15.22;64.61;100078.69;5057277;28;45441;-44
2023/03/23 20:03:05;;;;;;;;;4.00;2.67;;;;;15.20;64.54;100072.69;5039121;28;45340;-46
2023/03/23 20:05:32;;;;;;;;;3.00;3.00;;;;;15.11;64.45;100041.72;5057386;28;45383;-43
2023/03/23 20:07:58;;;;;;;;;3.00;2.67;;;;;15.10;65.01;100067.66;5057102;28;47006;-43
2023/03/23 20:10:23;;;;;;;;;1.75;1.75;;;;;15.06;65.15;100063.72;5057241;28;46042;-46
2023/03/23 20:12:48;;;;;;;;;3.33;2.67;;;;;15.05;66.21;100042.50;5057270;28;45576;-45
2023/03/23 20:15:14;;;;;;;;;2.67;2.67;;;;;15.01;66.47;100031.31;5057346;28;45376;-46
2023/03/23 20:17:40;;;;;;;;;5.33;3.33;;;;;14.96;66.13;100037.25;5057094;28;45778;-45
2023/03/23 20:20:08;;;;;;;;;5.00;3.00;;;;;14.93;66.38;100032.28;5056643;28;45498;-47
2023/03/23 20:22:34;;;;;;;;;3.33;2.00;;;;;14.92;65.70;100025.28;5057097;28;45407;-46
2023/03/23 20:25:00;;;;;;;;;2.67;2.67;;;;;14.90;66.44;100016.59;5056165;28;45507;-46
2023/03/23 20:27:25;;;;;;;;;4.00;4.00;;;;;14.81;66.49;99990.16;5056468;28;45249;-45
2023/03/23 20:29:52;;;;;;;;;4.00;2.00;;;;;14.86;66.74;99996.56;5055110;28;45426;-44
2023/03/23 20:32:17;;;;;;;;;4.67;4.67;;;;;14.84;66.44;99997.81;5056334;28;45293;-45
2023/03/23 20:34:47;;;;;;;;;2.00;2.00;;;;;14.84;66.98;99997.81;5056749;28;45389;-46
2023/03/23 20:37:15;;;;;;;;;3.67;3.67;;;;;14.84;66.69;100006.66;5054820;28;45550;-45
2023/03/23 20:39:40;;;;;;;;;3.00;3.00;;;;;14.82;66.79;100016.72;5055533;28;45335;-46
2023/03/23 20:42:06;;;;;;;;;5.00;3.00;;;;;14.86;66.95;100001.09;5056161;28;45391;-47
2023/03/23 20:44:33;;;;;;;;;4.00;2.33;;;;;14.85;66.42;100000.28;5056358;28;45375;-46
2023/03/23 20:47:01;;;;;;;;;3.33;3.33;;;;;14.74;66.40;99971.34;5055635;28;47254;-46
2023/03/23 20:49:27;;;;;;;;;3.67;3.00;;;;;14.87;66.87;99989.38;5055902;28;45464;-45
2023/03/23 20:51:52;;;;;;;;;2.00;2.00;;;;;14.88;66.96;99983.84;5055638;28;45437;-45
2023/03/23 20:54:19;;;;;;;;;2.00;2.00;;;;;14.82;66.48;99971.22;5056250;28;45381;-47
2023/03/23 20:56:45;;;;;;;;;3.33;1.67;;;;;14.92;66.04;99977.06;5055651;28;47757;-46
2023/03/23 20:59:12;;;;;;;;;3.00;2.00;;;;;14.88;66.50;99970.44;5054530;28;45362;-44
2023/03/23 21:01:38;;;;;;;;;7.00;3.00;;;;;14.86;66.33;99950.22;5055993;28;45542;-44
2023/03/23 21:04:06;;;;;;;;;3.33;2.67;;;;;14.93;66.67;99967.19;5055692;28;45237;-44
2023/03/23 21:06:35;;;;;;;;;3.00;3.00;;;;;14.91;67.17;99966.53;5055641;28;46114;-46
2023/03/23 21:09:02;;;;;;;;;2.67;2.00;;;;;14.95;67.31;99951.75;5055349;28;45466;-47
2023/03/23 21:11:29;;;;;;;;;2.33;2.33;;;;;14.97;66.54;99961.25;5055379;28;45398;-44
2023/03/23 21:13:54;;;;;;;;;6.00;3.00;;;;;15.00;66.42;99960.03;5055790;28;45470;-44
2023/03/23 21:16:22;;;;;;;;;4.67;3.00;;;;;15.01;66.59;99956.34;5055388;28;46306;-46
2023/03/23 21:18:48;;;;;;;;;6.00;4.00;;;;;15.03;66.74;99950.78;5055172;28;45522;-46
2023/03/23 21:21:13;;;;;;;;;2.67;2.67;;;;;14.99;67.09;99934.25;5055555;28;45363;-44
2023/03/23 21:23:45;;;;;;;;;7.00;5.67;;;;;15.05;66.63;99954.91;5055594;28;45383;-47